Time;durP1;ratioP1;P1;durP2;ratioP2;P2;SDS_P1;SDS_P2;PMS_P1;PMS_P2;Temp;Humidity;BMP_temperature;BMP_pressure;BME280_temperature;BME280_humidity;BME280_pressure;Samples;Min_cycle;Max_cycle;Signal;HPM_P1;HPM_P2
2021/03/30 00:01:36;;;;;;;4.07;3.77;;;;;;;2.77;79.99;97040.72;5082324;28;20279;-68
2021/03/30 00:04:03;;;;;;;4.80;4.47;;;;;;;2.74;80.46;97033.06;5072620;28;20227;-68
2021/03/30 00:06:30;;;;;;;5.60;4.10;;;;;;;2.74;80.22;97038.28;5085968;28;20229;-68
2021/03/30 00:08:57;;;;;;;5.53;3.57;;;;;;;2.72;79.74;97034.94;5087372;28;20225;-68
2021/03/30 00:11:24;;;;;;;4.73;4.43;;;;;;;2.69;80.80;97035.16;5079736;28;20249;-68
2021/03/30 00:13:51;;;;;;;4.30;3.97;;;;;;;2.73;81.02;97040.06;5083708;28;20699;-68
2021/03/30 00:16:18;;;;;;;3.93;3.43;;;;;;;2.74;81.82;97041.75;5080452;28;20318;-68
2021/03/30 00:18:46;;;;;;;3.87;3.37;;;;;;;2.73;81.03;97040.06;5082760;28;20691;-69
2021/03/30 00:21:13;;;;;;;3.47;3.27;;;;;;;2.75;80.97;97035.59;5082988;28;20499;-68
2021/03/30 00:23:40;;;;;;;3.80;3.50;;;;;;;2.80;80.88;97035.28;5085075;28;20226;-68
2021/03/30 00:26:06;;;;;;;3.53;3.23;;;;;;;2.87;80.95;97033.94;5073340;28;20278;-69
2021/03/30 00:28:33;;;;;;;3.90;3.60;;;;;;;2.92;81.02;97031.84;5071425;28;20226;-69
2021/03/30 00:31:00;;;;;;;3.67;3.47;;;;;;;2.97;80.30;97028.94;5085493;28;20221;-68
2021/03/30 00:33:27;;;;;;;4.17;3.77;;;;;;;2.94;80.88;97030.00;5085162;28;20225;-69
2021/03/30 00:35:55;;;;;;;4.10;3.80;;;;;;;2.93;80.69;97030.94;5083743;28;20227;-69
2021/03/30 00:38:21;;;;;;;5.83;5.43;;;;;;;2.93;80.29;97023.09;5086902;28;20309;-68
2021/03/30 00:40:50;;;;;;;4.53;4.13;;;;;;;2.94;80.54;97019.56;5082395;28;20227;-69
2021/03/30 00:43:17;;;;;;;4.07;3.77;;;;;;;2.95;80.91;97021.22;5078870;28;20228;-69
2021/03/30 00:45:44;;;;;;;4.03;3.70;;;;;;;2.92;80.37;97020.56;5079508;28;20231;-69
2021/03/30 00:48:22;;;;;;;4.37;4.07;;;;;;;2.89;80.94;97019.03;5082265;28;20729;-69
2021/03/30 00:50:52;;;;;;;5.13;3.93;;;;;;;2.76;80.51;97023.41;5081723;28;20291;-69
2021/03/30 00:53:39;;;;;;;4.03;3.80;;;;;;;2.49;81.02;97021.69;5086688;28;20649;-69
2021/03/30 00:56:20;;;;;;;4.13;3.70;;;;;;;2.41;81.29;97026.56;5077146;28;20232;-68
2021/03/30 00:58:49;;;;;;;4.63;4.27;;;;;;;2.38;80.65;97021.56;5084019;28;20257;-68
2021/03/30 01:01:16;;;;;;;5.40;4.90;;;;;;;2.39;80.60;97025.81;5082742;28;20226;-69
2021/03/30 01:03:43;;;;;;;3.90;3.70;;;;;;;2.42;81.02;97025.63;5081681;28;20221;-68
2021/03/30 01:06:10;;;;;;;5.27;4.73;;;;;;;2.43;80.61;97029.88;5077001;28;20755;-69
2021/03/30 01:08:53;;;;;;;5.03;4.17;;;;;;;2.46;80.85;97034.88;5084380;28;20310;-67
2021/03/30 01:11:36;;;;;;;3.90;3.60;;;;;;;2.47;80.56;97036.59;5081142;28;20230;-68
2021/03/30 01:14:31;;;;;;;4.70;4.33;;;;;;;2.50;81.14;97033.78;5079611;28;20663;-67
2021/03/30 01:17:03;;;;;;;4.10;3.73;;;;;;;2.53;81.59;97041.38;5078917;28;20229;-69
2021/03/30 01:19:59;;;;;;;3.40;3.20;;;;;;;2.55;81.60;97029.06;5070086;28;20307;-67
2021/03/30 01:22:55;;;;;;;4.67;3.90;;;;;;;2.56;80.81;97029.91;5085766;28;20263;-68
2021/03/30 01:25:26;;;;;;;4.73;4.33;;;;;;;2.55;80.86;97023.84;5080724;28;20302;-69
2021/03/30 01:28:02;;;;;;;4.80;4.50;;;;;;;2.58;79.85;97024.63;5086017;28;20304;-68
2021/03/30 01:30:32;;;;;;;4.57;4.17;;;;;;;2.61;79.51;97024.41;5078822;28;20682;-69
2021/03/30 01:33:06;;;;;;;5.67;5.10;;;;;;;2.60;79.92;97020.13;5072165;28;20221;-68
2021/03/30 01:35:35;;;;;;;5.00;4.50;;;;;;;2.59;79.27;97023.69;5072600;28;20239;-69
2021/03/30 01:38:03;;;;;;;3.17;2.97;;;;;;;2.58;79.38;97022.00;5058165;28;20302;-69
2021/03/30 01:40:33;;;;;;;4.53;3.93;;;;;;;2.56;79.80;97027.31;5075887;28;20300;-69
2021/03/30 01:43:03;;;;;;;3.30;3.10;;;;;;;2.57;79.80;97023.78;5074975;28;20309;-68
2021/03/30 01:45:32;;;;;;;4.00;3.77;;;;;;;2.62;79.04;97020.84;5064032;28;20303;-69
2021/03/30 01:48:01;;;;;;;4.43;3.23;;;;;;;2.66;79.56;97028.38;5075438;28;20226;-69
2021/03/30 01:50:30;;;;;;;3.83;3.60;;;;;;;2.68;78.36;97023.06;5075548;28;20339;-69
2021/03/30 01:52:58;;;;;;;5.70;5.30;;;;;;;2.66;78.39;97020.56;5080362;28;20349;-68
2021/03/30 01:55:28;;;;;;;6.30;5.70;;;;;;;2.64;78.55;97026.81;5076414;28;20768;-69
2021/03/30 01:57:58;;;;;;;4.80;4.50;;;;;;;2.63;78.99;97025.13;5078116;28;20559;-68
2021/03/30 02:00:29;;;;;;;4.80;3.47;;;;;;;2.43;78.75;97024.69;5078786;28;20233;-68
2021/03/30 02:02:58;;;;;;;5.10;4.67;;;;;;;2.46;78.65;97016.66;5080003;28;20217;-67
2021/03/30 02:05:26;;;;;;;4.53;4.23;;;;;;;2.40;79.34;97021.44;5065040;28;20287;-68
2021/03/30 02:07:55;;;;;;;5.00;4.57;;;;;;;2.31;80.12;97012.47;5065061;28;20314;-68
2021/03/30 02:10:30;;;;;;;3.23;3.03;;;;;;;2.23;79.47;97007.75;5080165;28;20717;-69
2021/03/30 02:12:59;;;;;;;3.50;3.23;;;;;;;2.09;79.72;97019.97;5082108;28;20294;-67
2021/03/30 02:15:27;;;;;;;4.77;4.37;;;;;;;2.03;80.62;97020.38;5076334;28;20377;-69
2021/03/30 02:18:02;;;;;;;3.90;3.50;;;;;;;2.07;81.29;97011.44;5082933;28;20585;-68
2021/03/30 02:20:33;;;;;;;3.70;3.40;;;;;;;2.05;81.91;97013.31;5084788;28;20707;-68
2021/03/30 02:23:05;;;;;;;6.37;4.00;;;;;;;2.05;80.83;97018.50;5077315;28;20278;-68
2021/03/30 02:25:33;;;;;;;3.60;3.30;;;;;;;2.09;81.90;97017.38;5079015;28;20250;-69
2021/03/30 02:28:04;;;;;;;3.77;3.47;;;;;;;2.10;81.26;97012.06;5081607;28;20578;-68
2021/03/30 02:30:34;;;;;;;3.30;2.87;;;;;;;2.03;81.94;97004.75;5072847;28;20340;-68
2021/03/30 02:33:04;;;;;;;4.43;3.53;;;;;;;2.10;81.67;97006.84;5071737;28;20226;-69
2021/03/30 02:35:33;;;;;;;4.90;4.57;;;;;;;2.11;81.90;97007.72;5066367;28;20234;-69
2021/03/30 02:38:03;;;;;;;5.50;3.97;;;;;;;2.13;81.38;97017.09;5077064;28;20282;-68
2021/03/30 02:40:30;;;;;;;3.33;3.13;;;;;;;2.13;81.51;97011.03;5076366;28;20603;-69
2021/03/30 02:43:00;;;;;;;4.17;3.27;;;;;;;2.15;81.10;97014.38;5073073;28;20218;-69
2021/03/30 02:45:31;;;;;;;3.03;2.83;;;;;;;2.18;81.32;97007.19;5081193;28;20283;-68
2021/03/30 02:48:08;;;;;;;4.57;3.70;;;;;;;2.19;81.04;97001.03;5079921;28;20726;-69
2021/03/30 02:50:35;;;;;;;3.30;3.00;;;;;;;2.19;80.51;97005.41;5080192;28;20300;-69
2021/03/30 02:53:04;;;;;;;5.17;4.77;;;;;;;2.18;79.95;97003.75;5082229;28;20807;-68
2021/03/30 02:55:32;;;;;;;3.23;3.03;;;;;;;2.14;80.59;97002.28;5067838;28;20548;-69
2021/03/30 02:57:59;;;;;;;3.27;2.97;;;;;;;2.12;80.70;97004.16;5080211;28;20229;-69
2021/03/30 03:00:26;;;;;;;3.63;3.37;;;;;;;2.07;81.12;96996.63;5075861;28;20233;-68
2021/03/30 03:02:55;;;;;;;3.83;3.53;;;;;;;1.96;80.81;97006.91;5080354;28;20464;-69
2021/03/30 03:05:23;;;;;;;3.10;2.80;;;;;;;1.89;80.93;97003.84;5083250;28;20610;-69
2021/03/30 03:07:51;;;;;;;2.40;2.27;;;;;;;1.87;81.65;97005.72;5080434;28;20364;-67
2021/03/30 03:10:19;;;;;;;4.53;4.13;;;;;;;1.84;81.48;96999.91;5072513;28;20226;-68
2021/03/30 03:12:47;;;;;;;3.60;3.30;;;;;;;1.81;81.99;97000.91;5073451;28;20225;-68
2021/03/30 03:15:16;;;;;;;3.00;2.80;;;;;;;1.82;82.88;97006.94;5077566;28;20312;-68
2021/03/30 03:17:44;;;;;;;3.43;2.83;;;;;;;1.78;83.25;97006.31;5068791;28;20581;-69
2021/03/30 03:20:12;;;;;;;2.17;2.07;;;;;;;1.78;83.25;97010.69;5071756;28;20316;-68
2021/03/30 03:22:41;;;;;;;2.67;2.47;;;;;;;1.81;83.01;97010.47;5073676;28;20221;-68
2021/03/30 03:25:12;;;;;;;4.23;3.83;;;;;;;1.85;82.22;97011.97;5068589;28;20222;-69
2021/03/30 03:27:39;;;;;;;5.77;5.17;;;;;;;1.79;81.73;97013.19;5082546;28;20436;-68
2021/03/30 03:30:10;;;;;;;3.10;2.90;;;;;;;1.74;81.86;97010.06;5079081;28;20240;-68
2021/03/30 03:32:37;;;;;;;3.27;3.07;;;;;;;1.67;82.36;97003.56;5083450;28;20241;-69
2021/03/30 03:35:10;;;;;;;2.90;2.70;;;;;;;1.65;81.62;97005.44;5080578;28;20428;-68
2021/03/30 03:37:42;;;;;;;3.00;2.80;;;;;;;1.61;82.67;97003.94;5085356;28;20222;-69
2021/03/30 03:40:10;;;;;;;3.47;3.17;;;;;;;1.57;82.52;97007.66;5083824;28;20253;-67
2021/03/30 03:42:37;;;;;;;3.63;3.43;;;;;;;1.53;82.86;97017.41;5086755;28;20206;-68
2021/03/30 03:45:06;;;;;;;6.03;4.33;;;;;;;1.50;82.95;97014.16;5086298;28;20767;-68
2021/03/30 03:47:33;;;;;;;6.40;5.80;;;;;;;1.46;82.75;97012.66;5087683;28;20226;-68
2021/03/30 03:50:01;;;;;;;2.70;2.60;;;;;;;1.47;83.68;97016.97;5084535;28;20233;-68
2021/03/30 03:52:30;;;;;;;3.87;3.57;;;;;;;1.46;84.01;97015.28;5080477;28;20718;-69
2021/03/30 03:54:59;;;;;;;5.33;4.03;;;;;;;1.43;84.12;97017.13;5073585;28;20308;-68
2021/03/30 03:57:31;;;;;;;3.80;3.50;;;;;;;1.41;84.32;97008.59;5082747;28;20217;-69
2021/03/30 03:59:59;;;;;;;3.90;3.63;;;;;;;1.40;84.22;97019.94;5083950;28;20731;-66
2021/03/30 04:02:29;;;;;;;3.50;3.30;;;;;;;1.41;84.46;97015.56;5084638;28;20225;-69
2021/03/30 04:05:01;;;;;;;3.10;2.80;;;;;;;1.40;83.67;97014.75;5079448;28;20226;-68
2021/03/30 04:07:32;;;;;;;3.93;3.23;;;;;;;1.38;84.61;97011.41;5070692;28;20229;-69
2021/03/30 04:10:02;;;;;;;3.67;3.47;;;;;;;1.32;83.65;97019.56;5061252;28;20238;-69
2021/03/30 04:12:31;;;;;;;4.63;3.43;;;;;;;1.24;84.32;97020.97;5077499;28;20271;-67
2021/03/30 04:14:59;;;;;;;2.73;2.53;;;;;;;1.15;84.01;97022.34;5086354;28;20227;-68
2021/03/30 04:17:25;;;;;;;2.60;2.47;;;;;;;1.10;83.55;97024.41;5079727;28;20299;-68
2021/03/30 04:19:53;;;;;;;4.17;3.17;;;;;;;1.04;84.24;97024.78;5103858;27;20250;-68
2021/03/30 04:22:19;;;;;;;2.83;2.60;;;;;;;1.13;84.41;97032.03;5079579;28;20218;-66
2021/03/30 04:24:46;;;;;;;7.03;3.80;;;;;;;1.17;84.19;97020.50;5070430;28;20244;-69
2021/03/30 04:27:15;;;;;;;5.10;4.10;;;;;;;1.24;83.66;97023.56;5077846;28;20400;-67
2021/03/30 04:29:42;;;;;;;2.37;2.17;;;;;;;1.25;82.97;97020.88;5075924;28;20225;-68
2021/03/30 04:32:10;;;;;;;3.23;2.60;;;;;;;1.28;82.82;97019.84;5084895;28;20274;-67
2021/03/30 04:34:37;;;;;;;3.07;2.83;;;;;;;1.26;82.79;97025.13;5077490;28;20228;-67
2021/03/30 04:37:04;;;;;;;2.30;2.10;;;;;;;1.23;83.44;97020.13;5076010;28;20632;-68
2021/03/30 04:39:31;;;;;;;5.33;3.07;;;;;;;1.16;83.20;97023.19;5082298;28;21112;-68
2021/03/30 04:41:58;;;;;;;3.67;2.20;;;;;;;1.02;82.76;97026.63;5082009;28;20225;-69
2021/03/30 04:44:26;;;;;;;3.37;3.13;;;;;;;0.90;82.46;97027.34;5080600;28;20245;-66
2021/03/30 04:46:53;;;;;;;3.13;2.83;;;;;;;0.82;83.07;97036.44;5081555;28;20774;-65
2021/03/30 04:49:20;;;;;;;3.60;3.10;;;;;;;0.74;83.73;97033.47;5080550;28;20221;-64
2021/03/30 04:51:47;;;;;;;3.37;3.07;;;;;;;0.69;84.17;97030.28;5080793;28;20217;-66
2021/03/30 04:54:13;;;;;;;4.60;4.20;;;;;;;0.68;84.17;97033.81;5080116;28;20373;-65
2021/03/30 04:56:40;;;;;;;2.97;2.67;;;;;;;0.66;84.53;97040.88;5078671;28;20317;-65
2021/03/30 04:59:07;;;;;;;3.27;3.07;;;;;;;0.74;84.73;97041.25;5080152;28;20548;-66
2021/03/30 05:01:35;;;;;;;3.33;3.13;;;;;;;0.73;84.13;97046.50;5080687;28;20233;-65
2021/03/30 05:04:03;;;;;;;2.37;2.17;;;;;;;0.72;84.80;97034.44;5083956;28;20225;-65
2021/03/30 05:06:33;;;;;;;3.47;2.63;;;;;;;0.66;84.94;97040.03;5077824;28;20379;-66
2021/03/30 05:09:01;;;;;;;2.60;2.40;;;;;;;0.63;84.60;97043.63;5073083;28;20233;-65
2021/03/30 05:11:27;;;;;;;3.33;3.13;;;;;;;0.67;84.72;97047.72;5077082;28;20590;-66
2021/03/30 05:13:54;;;;;;;2.90;2.70;;;;;;;0.70;84.89;97046.69;5072870;28;20314;-66
2021/03/30 05:16:21;;;;;;;3.20;2.30;;;;;;;0.75;85.10;97045.53;5077345;28;20214;-66
2021/03/30 05:18:49;;;;;;;2.67;2.33;;;;;;;0.81;84.50;97044.31;5080479;28;20225;-66
2021/03/30 05:21:17;;;;;;;4.07;3.37;;;;;;;0.85;84.70;97046.66;5080043;28;20271;-65
2021/03/30 05:23:44;;;;;;;3.30;3.00;;;;;;;0.94;85.27;97044.44;5084062;28;20217;-66
2021/03/30 05:26:11;;;;;;;2.63;2.43;;;;;;;0.99;84.66;97045.00;5068437;28;20578;-65
2021/03/30 05:28:38;;;;;;;2.73;2.53;;;;;;;1.09;84.74;97056.50;5079356;28;20641;-66
2021/03/30 05:31:05;;;;;;;3.40;2.43;;;;;;;1.15;84.33;97053.56;5081835;28;20237;-65
2021/03/30 05:33:32;;;;;;;5.43;2.50;;;;;;;1.24;84.46;97053.00;5076588;28;20256;-66
2021/03/30 05:35:59;;;;;;;2.70;2.50;;;;;;;1.32;84.02;97058.59;5069345;28;20238;-66
2021/03/30 05:38:26;;;;;;;2.60;1.83;;;;;;;1.39;83.38;97052.09;5077543;28;20225;-66
2021/03/30 05:40:54;;;;;;;2.33;2.20;;;;;;;1.43;83.94;97058.75;5069766;28;20538;-66
2021/03/30 05:43:22;;;;;;;1.90;1.80;;;;;;;1.50;83.51;97064.44;5078418;28;20638;-66
2021/03/30 05:45:49;;;;;;;3.03;2.23;;;;;;;1.59;83.75;97063.03;5073568;28;20287;-66
2021/03/30 05:48:17;;;;;;;5.10;2.30;;;;;;;1.65;83.44;97057.47;5073452;28;20226;-65
2021/03/30 05:50:44;;;;;;;2.63;2.43;;;;;;;1.67;82.42;97071.22;5080655;28;20295;-66
2021/03/30 05:53:14;;;;;;;2.20;2.10;;;;;;;1.76;82.50;97065.44;5070296;28;20227;-65
2021/03/30 05:55:43;;;;;;;2.57;2.37;;;;;;;1.86;81.91;97066.53;5076769;28;20573;-66
2021/03/30 05:58:11;;;;;;;2.23;2.10;;;;;;;1.97;81.43;97069.28;5074501;28;20225;-65
2021/03/30 06:00:41;;;;;;;2.27;2.13;;;;;;;2.11;81.19;97075.41;5082455;28;20222;-66
2021/03/30 06:03:11;;;;;;;1.50;1.40;;;;;;;2.25;80.88;97072.75;5081561;28;20641;-65
2021/03/30 06:05:39;;;;;;;3.30;3.10;;;;;;;2.43;80.25;97075.94;5077832;28;20298;-65
2021/03/30 06:08:06;;;;;;;5.90;3.90;;;;;;;2.62;79.58;97067.78;5076146;28;20853;-65
2021/03/30 06:10:36;;;;;;;3.87;3.67;;;;;;;2.82;78.05;97069.91;5079577;28;20461;-66
2021/03/30 06:13:05;;;;;;;6.33;4.27;;;;;;;3.05;75.90;97066.59;5077210;28;20706;-65
2021/03/30 06:15:35;;;;;;;5.90;4.97;;;;;;;3.23;76.76;97072.34;5074458;28;20233;-65
2021/03/30 06:18:18;;;;;;;3.90;3.47;;;;;;;3.35;76.82;97065.47;5077933;28;20678;-65
2021/03/30 06:20:46;;;;;;;4.13;3.83;;;;;;;3.46;75.79;97060.34;5075903;28;20270;-66
2021/03/30 06:23:13;;;;;;;3.63;3.30;;;;;;;3.53;75.22;97069.41;5078876;28;20261;-66
2021/03/30 06:25:44;;;;;;;5.63;2.90;;;;;;;3.64;75.20;97069.50;5078106;28;20218;-65
2021/03/30 06:28:16;;;;;;;3.10;2.90;;;;;;;3.77;74.84;97072.09;5078620;28;20758;-66
2021/03/30 06:30:59;;;;;;;1.97;1.80;;;;;;;3.92;74.37;97080.63;5076220;28;20246;-66
2021/03/30 06:33:26;;;;;;;1.90;1.80;;;;;;;4.08;74.41;97076.00;5071407;28;20294;-65
2021/03/30 06:36:11;;;;;;;4.07;3.57;;;;;;;4.25;73.58;97073.03;5083270;28;20238;-65
2021/03/30 06:38:56;;;;;;;5.10;4.07;;;;;;;4.44;73.69;97076.91;5074741;28;20631;-65
2021/03/30 06:41:30;;;;;;;5.00;2.77;;;;;;;4.60;73.51;97074.88;5075925;28;20253;-65
2021/03/30 06:46:48;;;;;;;4.73;2.73;;;;;;;5.02;72.41;97068.22;5077169;28;20326;-66
2021/03/30 06:49:16;;;;;;;3.67;2.63;;;;;;;5.19;71.69;97072.19;5078736;28;20282;-66
2021/03/30 06:51:43;;;;;;;3.60;2.80;;;;;;;5.39;70.38;97071.53;5081925;28;20240;-66
2021/03/30 06:54:10;;;;;;;2.83;2.53;;;;;;;5.58;69.76;97070.13;5079741;28;20554;-64
2021/03/30 06:56:48;;;;;;;2.97;2.77;;;;;;;5.76;67.66;97068.69;5076637;28;20294;-66
2021/03/30 06:59:16;;;;;;;3.10;2.83;;;;;;;5.96;67.29;97069.78;5076609;28;20228;-66
2021/03/30 07:01:44;;;;;;;4.47;2.37;;;;;;;6.12;66.50;97072.00;5077813;28;20266;-66
2021/03/30 07:04:12;;;;;;;2.97;2.30;;;;;;;6.33;64.79;97072.94;5074311;28;20257;-67
2021/03/30 07:06:40;;;;;;;2.90;2.60;;;;;;;6.45;67.01;97066.69;5080560;28;20225;-66
2021/03/30 07:09:09;;;;;;;8.53;2.70;;;;;;;6.52;66.39;97072.28;5076828;28;20275;-66
2021/03/30 07:11:39;;;;;;;3.27;2.17;;;;;;;6.63;64.91;97071.41;5083917;28;20321;-66
2021/03/30 07:14:07;;;;;;;3.00;2.30;;;;;;;6.79;64.49;97069.22;5085505;28;20278;-66
2021/03/30 07:16:39;;;;;;;4.20;1.70;;;;;;;6.90;64.75;97071.78;5083512;28;20225;-66
2021/03/30 07:19:09;;;;;;;2.23;2.10;;;;;;;7.03;62.73;97067.16;5076986;28;20232;-66
2021/03/30 07:21:47;;;;;;;1.97;1.27;;;;;;;7.21;62.26;97058.72;5084265;28;20571;-66
2021/03/30 07:24:20;;;;;;;3.77;1.53;;;;;;;7.43;61.33;97063.84;5085220;28;20249;-65
2021/03/30 07:26:54;;;;;;;2.23;1.57;;;;;;;7.63;60.73;97059.53;5083356;28;20759;-65
2021/03/30 07:29:29;;;;;;;2.63;2.20;;;;;;;7.87;60.82;97069.72;5081534;28;20225;-65
2021/03/30 07:32:02;;;;;;;1.83;1.73;;;;;;;8.09;60.48;97066.88;5081735;28;20221;-67
2021/03/30 07:34:39;;;;;;;8.33;3.87;;;;;;;8.32;58.61;97069.28;5083780;28;20234;-66
2021/03/30 07:37:10;;;;;;;2.10;1.50;;;;;;;8.53;58.30;97070.06;5072769;28;20220;-66
2021/03/30 07:39:45;;;;;;;1.57;1.47;;;;;;;8.75;57.24;97059.28;5078391;28;20639;-65
2021/03/30 07:42:13;;;;;;;6.67;4.00;;;;;;;8.95;57.22;97064.53;5078385;28;20641;-66
2021/03/30 07:44:42;;;;;;;2.73;2.23;;;;;;;9.15;57.83;97060.94;5082556;28;20662;-66
2021/03/30 07:47:10;;;;;;;4.37;1.70;;;;;;;9.33;56.21;97059.25;5072566;28;20240;-66
2021/03/30 07:49:40;;;;;;;2.20;2.10;;;;;;;9.52;55.78;97068.09;5078512;28;20654;-65
2021/03/30 07:52:20;;;;;;;9.20;3.50;;;;;;;9.76;54.32;97064.94;5080299;28;20300;-67
2021/03/30 07:55:16;;;;;;;2.47;2.23;;;;;;;10.02;52.15;97059.84;5077700;28;20221;-66
2021/03/30 07:58:01;;;;;;;1.60;1.50;;;;;;;10.25;51.53;97058.53;5078405;28;20679;-67
2021/03/30 08:00:49;;;;;;;2.47;2.07;;;;;;;10.42;53.63;97056.88;5079424;28;20237;-65
2021/03/30 08:03:21;;;;;;;2.33;2.13;;;;;;;10.60;53.86;97059.53;5082636;28;20227;-66
2021/03/30 08:06:17;;;;;;;1.63;1.53;;;;;;;10.82;52.51;97053.81;5079249;28;20275;-67
2021/03/30 08:09:00;;;;;;;3.53;3.23;;;;;;;11.06;51.79;97050.56;5083027;28;20226;-67
2021/03/30 08:11:51;;;;;;;8.27;3.30;;;;;;;11.13;50.91;97045.50;5079791;28;20227;-67
2021/03/30 08:14:41;;;;;;;4.93;2.67;;;;;;;11.39;50.16;97049.00;5079614;28;20229;-66
2021/03/30 08:17:16;;;;;;;6.70;2.90;;;;;;;11.65;49.41;97051.66;5083911;28;20222;-66
2021/03/30 08:19:54;;;;;;;2.80;2.43;;;;;;;11.87;48.74;97055.59;5078144;28;20440;-65
2021/03/30 08:22:21;;;;;;;9.07;2.57;;;;;;;12.04;49.58;97056.50;5076978;28;20251;-66
2021/03/30 08:24:55;;;;;;;2.37;1.80;;;;;;;12.24;48.70;97053.44;5084172;28;20229;-66
2021/03/30 08:27:39;;;;;;;2.47;2.30;;;;;;;12.57;47.99;97052.72;5080178;28;20251;-67
2021/03/30 08:30:16;;;;;;;3.73;2.67;;;;;;;12.89;47.01;97051.94;5084165;28;20231;-66
2021/03/30 08:32:46;;;;;;;3.80;2.20;;;;;;;13.15;46.14;97049.97;5078674;28;20717;-67
2021/03/30 08:35:34;;;;;;;3.43;2.00;;;;;;;13.46;46.35;97052.00;5076670;28;20295;-67
2021/03/30 08:38:02;;;;;;;2.60;2.40;;;;;;;13.71;45.19;97050.94;5081057;28;20312;-67
2021/03/30 08:40:43;;;;;;;3.67;2.80;;;;;;;13.97;43.87;97050.69;5082285;28;20221;-67
2021/03/30 08:43:23;;;;;;;3.07;1.93;;;;;;;14.29;42.33;97051.59;5079740;28;20492;-67
2021/03/30 08:46:02;;;;;;;1.93;1.53;;;;;;;14.56;40.47;97055.66;5084472;28;20228;-67
2021/03/30 08:48:35;;;;;;;3.90;1.57;;;;;;;14.73;38.49;97050.06;5083345;28;20306;-67
2021/03/30 08:51:04;;;;;;;6.07;3.13;;;;;;;14.96;38.65;97050.06;5080569;28;20230;-67
2021/03/30 08:53:32;;;;;;;12.50;2.50;;;;;;;15.20;38.56;97040.25;5080117;28;20504;-67
2021/03/30 08:56:00;;;;;;;5.97;2.20;;;;;;;15.48;38.20;97044.00;5078662;28;20585;-67
2021/03/30 08:58:29;;;;;;;4.23;1.63;;;;;;;15.74;37.02;97043.63;5081443;28;20240;-67
2021/03/30 09:00:57;;;;;;;3.80;1.73;;;;;;;15.96;38.58;97041.88;5072685;28;20294;-67
2021/03/30 09:03:26;;;;;;;2.57;2.37;;;;;;;16.15;37.22;97045.81;5077741;28;20217;-67
2021/03/30 09:05:54;;;;;;;3.47;1.97;;;;;;;16.32;36.54;97041.13;5077577;28;20301;-68
2021/03/30 09:08:38;;;;;;;2.90;1.87;;;;;;;16.57;37.37;97044.28;5082495;28;20256;-66
2021/03/30 09:11:19;;;;;;;1.47;1.37;;;;;;;16.91;38.10;97043.66;5097986;27;20249;-67
2021/03/30 09:14:04;;;;;;;1.83;1.73;;;;;;;17.24;35.49;97036.81;5076081;28;20401;-67
2021/03/30 09:16:32;;;;;;;4.47;1.50;;;;;;;17.45;34.77;97043.13;5075613;28;20262;-66
2021/03/30 09:19:17;;;;;;;3.17;1.20;;;;;;;17.69;34.24;97034.69;5072418;28;20283;-67
2021/03/30 09:21:48;;;;;;;2.10;1.77;;;;;;;18.04;34.49;97032.06;5095044;28;20263;-68
2021/03/30 09:24:26;;;;;;;5.43;2.23;;;;;;;18.27;33.65;97027.25;5083301;28;20240;-67
2021/03/30 09:26:53;;;;;;;2.63;2.20;;;;;;;18.43;32.13;97021.56;5080711;28;20222;-67
2021/03/30 09:29:21;;;;;;;6.10;1.53;;;;;;;18.51;31.31;97019.75;5080972;28;20425;-68
2021/03/30 09:31:49;;;;;;;2.10;2.00;;;;;;;18.68;32.24;97023.75;5081894;28;20642;-68
2021/03/30 09:34:16;;;;;;;3.03;2.77;;;;;;;18.96;29.26;97026.28;5077369;28;20218;-67
2021/03/30 09:36:46;;;;;;;6.17;1.77;;;;;;;19.15;30.83;97019.31;5079572;28;20225;-69
2021/03/30 09:39:21;;;;;;;4.27;2.20;;;;;;;19.36;31.64;97021.78;5084886;28;20229;-66
2021/03/30 09:41:49;;;;;;;1.97;1.70;;;;;;;19.67;31.34;97020.38;5079143;28;20249;-68
2021/03/30 09:44:17;;;;;;;13.57;3.20;;;;;;;19.91;31.11;97019.72;5084358;28;20687;-68
2021/03/30 09:46:46;;;;;;;7.63;3.97;;;;;;;20.04;30.90;97014.34;5081963;28;20283;-68
2021/03/30 09:49:14;;;;;;;4.63;2.53;;;;;;;20.22;31.74;97010.16;5080964;28;20229;-68
2021/03/30 09:51:45;;;;;;;2.40;2.20;;;;;;;20.43;31.86;97012.56;5081467;28;20282;-68
2021/03/30 09:54:37;;;;;;;5.57;3.63;;;;;;;20.70;30.98;97014.09;5079959;28;20225;-67
2021/03/30 09:57:12;;;;;;;3.20;3.00;;;;;;;20.86;30.84;97009.28;5078620;28;20636;-68
2021/03/30 09:59:39;;;;;;;2.87;2.57;;;;;;;21.04;31.71;97004.00;5079558;28;20216;-68
2021/03/30 10:02:07;;;;;;;3.83;2.60;;;;;;;21.30;31.05;97003.00;5081589;28;20574;-67
2021/03/30 10:04:34;;;;;;;3.23;3.03;;;;;;;21.52;31.16;97004.28;5076374;28;20247;-68
2021/03/30 10:07:14;;;;;;;2.47;2.27;;;;;;;21.85;30.36;97006.66;5078044;28;20597;-68
2021/03/30 10:09:58;;;;;;;3.87;3.57;;;;;;;22.12;30.75;97001.84;5077024;28;20221;-67
2021/03/30 10:12:30;;;;;;;2.80;2.60;;;;;;;22.41;30.67;96994.91;5083706;28;20226;-69
2021/03/30 10:14:57;;;;;;;5.77;4.10;;;;;;;22.50;28.79;96994.59;5080869;28;20214;-68
2021/03/30 10:17:26;;;;;;;3.30;3.00;;;;;;;22.61;29.10;96997.31;5081503;28;20228;-68
2021/03/30 10:19:54;;;;;;;3.83;3.53;;;;;;;22.71;28.69;96986.03;5080063;28;20225;-68
2021/03/30 10:22:24;;;;;;;5.17;4.60;;;;;;;22.91;27.61;96989.28;5082451;28;20217;-68
2021/03/30 10:25:14;;;;;;;5.50;5.00;;;;;;;23.08;28.23;96980.56;5076993;28;20224;-68
2021/03/30 10:27:51;;;;;;;3.53;3.33;;;;;;;23.49;27.65;96980.47;5082112;28;20229;-68
2021/03/30 10:30:27;;;;;;;4.83;4.43;;;;;;;23.77;25.99;96981.69;5080071;28;20225;-68
2021/03/30 10:32:57;;;;;;;4.40;4.10;;;;;;;23.93;25.90;96980.97;5077667;28;20225;-68
2021/03/30 10:35:25;;;;;;;3.80;3.50;;;;;;;24.09;26.56;96974.88;5076786;28;20702;-68
2021/03/30 10:37:53;;;;;;;4.00;3.70;;;;;;;24.37;26.66;96965.22;5080302;28;20225;-68
2021/03/30 10:40:20;;;;;;;5.25;4.47;;;;;;;24.52;28.09;96957.44;5076652;28;20229;-69
2021/03/30 10:42:47;;;;;;;6.35;4.30;;;;;;;24.68;25.84;96972.84;5080771;28;20723;-68
2021/03/30 10:45:16;;;;;;;4.40;4.07;;;;;;;24.87;25.06;96962.69;5081783;28;20310;-68
2021/03/30 10:47:48;;;;;;;8.82;4.78;;;;;;;24.91;25.79;96961.13;5081398;28;20593;-68
2021/03/30 10:50:17;;;;;;;5.90;5.13;;;;;;;25.10;27.04;96956.34;5073068;28;20249;-67
2021/03/30 10:52:44;;;;;;;6.22;5.82;;;;;;;25.15;25.52;96950.22;5082231;28;21173;-68
2021/03/30 10:55:16;;;;;;;4.82;4.43;;;;;;;24.97;25.34;96956.66;5076144;28;20617;-68
2021/03/30 10:57:46;;;;;;;5.93;5.35;;;;;;;25.13;26.50;96947.75;5079364;28;20237;-68
2021/03/30 11:00:15;;;;;;;4.22;4.00;;;;;;;25.49;25.25;96945.63;5075530;28;20302;-67
2021/03/30 11:02:43;;;;;;;4.15;3.95;;;;;;;25.48;23.66;96949.41;5080230;28;20245;-68
2021/03/30 11:05:12;;;;;;;4.45;4.15;;;;;;;25.30;24.34;96942.34;5078533;28;20655;-68
2021/03/30 11:07:39;;;;;;;4.45;4.25;;;;;;;25.22;23.90;96940.88;5079876;28;20272;-68
2021/03/30 11:10:08;;;;;;;5.00;4.68;;;;;;;25.22;15.12;96929.25;5075900;28;20268;-68
2021/03/30 11:12:37;;;;;;;4.57;4.03;;;;;;;25.28;18.37;96930.16;5074520;28;20306;-68
2021/03/30 11:15:06;;;;;;;5.45;4.82;;;;;;;25.33;18.10;96919.41;5080985;28;20652;-68
2021/03/30 11:17:33;;;;;;;11.40;6.68;;;;;;;25.50;20.15;96925.63;5082952;28;20282;-68
2021/03/30 11:20:00;;;;;;;7.60;6.57;;;;;;;25.53;24.88;96914.34;5077428;28;20217;-67
2021/03/30 11:22:27;;;;;;;4.05;3.75;;;;;;;25.78;21.08;96917.41;5078322;28;20308;-67
2021/03/30 11:24:56;;;;;;;3.85;3.33;;;;;;;26.11;18.04;96915.69;5077688;28;20217;-68
2021/03/30 11:27:23;;;;;;;4.00;3.80;;;;;;;26.24;23.09;96907.22;5078396;28;20229;-68
2021/03/30 11:29:55;;;;;;;5.18;4.72;;;;;;;26.08;22.84;96908.09;5075992;28;20241;-68
2021/03/30 11:32:39;;;;;;;3.45;3.25;;;;;;;25.99;20.89;96905.00;5072992;28;20313;-68
2021/03/30 11:35:10;;;;;;;3.25;3.05;;;;;;;25.95;17.04;96892.22;5077543;28;20278;-68
2021/03/30 11:37:45;;;;;;;3.58;3.38;;;;;;;26.02;23.36;96885.56;5078821;28;20475;-68
2021/03/30 11:40:13;;;;;;;3.92;3.65;;;;;;;26.32;23.87;96885.09;5080567;28;20546;-68
2021/03/30 11:42:40;;;;;;;3.03;2.80;;;;;;;26.51;21.54;96888.28;5078873;28;20234;-68
2021/03/30 11:45:10;;;;;;;4.57;2.90;;;;;;;26.52;22.75;96887.25;5080524;28;20286;-68
2021/03/30 11:47:37;;;;;;;2.60;2.40;;;;;;;26.62;24.05;96883.81;5076176;28;20637;-68
2021/03/30 11:50:06;;;;;;;3.40;3.10;;;;;;;26.43;22.79;96879.84;5073449;28;20259;-68
2021/03/30 11:52:33;;;;;;;2.67;2.47;;;;;;;26.19;22.31;96874.66;5075571;28;20487;-68
2021/03/30 11:55:01;;;;;;;4.60;4.38;;;;;;;26.18;23.39;96901.97;5078290;28;20226;-68
2021/03/30 11:57:28;;;;;;;2.72;2.53;;;;;;;25.97;22.77;96871.13;5079029;28;20225;-67
2021/03/30 11:59:55;;;;;;;3.10;2.80;;;;;;;25.68;24.45;96865.88;5082114;28;20257;-68